Time;durP1;ratioP1;P1;durP2;ratioP2;P2;SDS_P1;SDS_P2;PMS_P1;PMS_P2;Temp;Humidity;BMP_temperature;BMP_pressure;BME280_temperature;BME280_humidity;BME280_pressure;Samples;Min_cycle;Max_cycle;Signal;HPM_P1;HPM_P2
2021/05/10 00:03:01;;;;;;;3.42;1.30;;;16.20;99.90;;;;;;20825205;28;20163;-76
2021/05/10 00:13:03;;;;;;;2.03;1.33;;;16.20;99.90;;;;;;20840155;28;20061;-76
2021/05/10 00:23:05;;;;;;;7.55;1.90;;;15.90;99.90;;;;;;20830943;28;20038;-76
2021/05/10 00:33:06;;;;;;;8.68;1.83;;;15.90;99.90;;;;;;20840747;28;20037;-76
2021/05/10 00:43:07;;;;;;;4.20;1.50;;;16.10;99.90;;;;;;20840003;28;20068;-76
2021/05/10 00:53:08;;;;;;;7.00;1.40;;;16.00;99.90;;;;;;20839387;28;20033;-76
2021/05/10 01:03:09;;;;;;;4.95;1.92;;;15.50;99.90;;;;;;20838170;28;20488;-76
2021/05/10 01:13:11;;;;;;;6.53;1.70;;;15.20;99.90;;;;;;20837696;28;20488;-76
2021/05/10 01:23:12;;;;;;;2.10;1.60;;;15.20;99.90;;;;;;20852313;28;20105;-76
2021/05/10 01:33:13;;;;;;;3.72;1.42;;;14.90;99.90;;;;;;20850100;28;20029;-76
2021/05/10 01:43:16;;;;;;;5.57;1.17;;;14.90;99.90;;;;;;20835523;28;20480;-75
2021/05/10 01:53:17;;;;;;;2.95;1.50;;;15.30;99.90;;;;;;20835034;28;20029;-76
2021/05/10 02:03:22;;;;;;;2.83;1.43;;;15.40;99.90;;;;;;20833990;28;20396;-76
2021/05/10 02:13:24;;;;;;;3.55;2.38;;;15.20;99.90;;;;;;20833151;28;20116;-76
2021/05/10 02:23:31;;;;;;;5.97;2.70;;;14.80;99.90;;;;;;20832332;28;20036;-76
2021/05/10 02:33:34;;;;;;;9.55;2.35;;;14.50;99.90;;;;;;20831296;28;20034;-76
2021/05/10 02:43:34;;;;;;;3.42;2.03;;;14.00;99.90;;;;;;20830046;28;20029;-75
2021/05/10 02:53:35;;;;;;;5.07;1.90;;;14.10;99.90;;;;;;20829650;28;20116;-76
2021/05/10 03:03:36;;;;;;;3.73;2.10;;;14.10;99.90;;;;;;20828735;28;20551;-76
2021/05/10 03:13:37;;;;;;;2.17;1.70;;;13.90;99.90;;;;;;20828257;28;20099;-76
2021/05/10 03:23:38;;;;;;;7.10;1.97;;;13.90;99.90;;;;;;20827815;28;20036;-77
2021/05/10 03:33:38;;;;;;;4.45;1.92;;;13.90;99.90;;;;;;20826721;28;20480;-77
2021/05/10 03:43:39;;;;;;;4.17;2.03;;;13.90;99.90;;;;;;20857783;28;20039;-77
2021/05/10 03:53:40;;;;;;;2.38;1.83;;;14.10;99.90;;;;;;20906684;28;20496;-77
2021/05/10 04:14:01;;;;;;;5.05;1.95;;;13.70;99.90;;;;;;20824690;28;20112;-77
2021/05/10 04:24:03;;;;;;;7.28;2.03;;;13.20;99.90;;;;;;20826731;28;20507;-77
2021/05/10 04:34:04;;;;;;;3.67;1.50;;;13.50;99.90;;;;;;20836304;28;20049;-75
2021/05/10 04:44:05;;;;;;;4.93;1.48;;;14.10;99.90;;;;;;20820040;28;20029;-75
2021/05/10 04:54:06;;;;;;;2.97;1.60;;;14.60;99.90;;;;;;20818970;28;20026;-75
2021/05/10 05:04:06;;;;;;;2.78;1.88;;;14.40;99.90;;;;;;20822054;28;20167;-76
2021/05/10 05:14:07;;;;;;;14.15;1.98;;;14.20;99.90;;;;;;20830624;28;20518;-75
2021/05/10 05:24:08;;;;;;;3.35;1.88;;;14.50;99.90;;;;;;20784639;28;695296;-75
2021/05/10 05:34:09;;;;;;;9.27;2.37;;;14.70;99.90;;;;;;20809000;28;20029;-76
2021/05/10 05:44:10;;;;;;;5.77;2.83;;;14.60;99.90;;;;;;20866557;28;20112;-77
2021/05/10 05:54:13;;;;;;;7.40;2.72;;;14.30;99.90;;;;;;20834833;28;20143;-76
2021/05/10 06:04:14;;;;;;;8.40;2.38;;;14.20;99.90;;;;;;20834119;28;20033;-76
2021/05/10 06:14:15;;;;;;;5.80;1.83;;;14.50;99.90;;;;;;20839259;28;20047;-76
2021/05/10 06:24:15;;;;;;;6.35;2.35;;;15.30;99.90;;;;;;20838138;28;20026;-77
2021/05/10 06:34:16;;;;;;;7.60;2.67;;;15.50;99.90;;;;;;20831939;28;20026;-76
2021/05/10 06:44:17;;;;;;;7.90;2.75;;;15.50;99.90;;;;;;20831198;28;20029;-77
2021/05/10 06:54:18;;;;;;;6.90;2.00;;;17.50;99.90;;;;;;20830603;28;20132;-77
2021/05/10 07:04:19;;;;;;;8.07;3.07;;;18.30;99.90;;;;;;20831947;28;20033;-75
2021/05/10 07:14:20;;;;;;;8.30;2.10;;;18.30;99.90;;;;;;20827959;28;20120;-77
2021/05/10 07:24:21;;;;;;;2.33;1.30;;;19.50;99.90;;;;;;20828817;28;20395;-78
2021/05/10 07:34:22;;;;;;;3.33;1.40;;;19.80;99.90;;;;;;20826567;28;20299;-76
2021/05/10 07:44:23;;;;;;;5.40;1.57;;;19.70;99.90;;;;;;20827213;28;20522;-77
2021/05/10 07:54:24;;;;;;;4.03;1.30;;;20.20;99.90;;;;;;20828496;28;20108;-76
2021/05/10 08:04:25;;;;;;;7.07;1.50;;;20.30;99.90;;;;;;20829676;28;20052;-77
2021/05/10 08:14:26;;;;;;;3.03;1.63;;;20.60;99.90;;;;;;20824177;28;20037;-78
2021/05/10 08:24:27;;;;;;;9.00;3.50;;;20.90;99.90;;;;;;20828276;28;20037;-78
2021/05/10 08:34:28;;;;;;;7.07;1.63;;;21.40;99.90;;;;;;20824376;28;20061;-78
2021/05/10 08:44:29;;;;;;;4.70;1.40;;;20.10;99.90;;;;;;20832547;28;20048;-77
2021/05/10 08:54:31;;;;;;;2.63;1.13;;;19.60;99.90;;;;;;20840159;28;20021;-77
2021/05/10 09:04:34;;;;;;;14.93;3.08;;;19.50;99.90;;;;;;20839115;28;20087;-77
2021/05/10 09:14:35;;;;;;;3.58;1.02;;;19.30;99.90;;;;;;20838278;28;20416;-77
2021/05/10 09:24:48;;;;;;;3.40;0.97;;;19.10;99.90;;;;;;20847763;28;20045;-78
2021/05/10 09:35:28;;;;;;;1.95;0.70;;;18.90;99.90;;;;;;20862416;28;20530;-78
2021/05/10 09:45:34;;;;;;;1.23;0.52;;;18.00;99.90;;;;;;20860523;28;20065;-76
2021/05/10 09:55:53;;;;;;;2.15;0.55;;;19.10;99.90;;;;;;20866316;28;20094;-78
2021/05/10 10:05:56;;;;;;;1.15;0.60;;;18.90;99.90;;;;;;20861490;28;20030;-78
2021/05/10 10:15:58;;;;;;;2.28;0.47;;;18.60;99.90;;;;;;20857001;28;20044;-77
2021/05/10 10:26:00;;;;;;;0.75;0.50;;;18.40;99.90;;;;;;20863275;28;20069;-76
2021/05/10 10:36:03;;;;;;;0.73;0.30;;;18.60;99.90;;;;;;20846206;28;20407;-78
2021/05/10 10:46:27;;;;;;;0.20;0.20;;;17.90;99.90;;;;;;20844529;28;20029;-77
2021/05/10 10:56:52;;;;;;;0.73;0.20;;;17.80;99.90;;;;;;20841388;28;20518;-76
2021/05/10 11:06:53;;;;;;;0.80;0.20;;;17.60;99.90;;;;;;20832797;28;20447;-76
2021/05/10 11:16:55;;;;;;;0.40;0.10;;;17.10;99.90;;;;;;20837859;28;20030;-77
2021/05/10 11:27:00;;;;;;;1.35;0.20;;;17.50;99.90;;;;;;20844758;28;20037;-77
2021/05/10 11:37:01;;;;;;;0.50;0.10;;;17.50;99.90;;;;;;20839079;28;20037;-77
2021/05/10 11:47:06;;;;;;;0.60;0.10;;;17.30;99.90;;;;;;20840606;28;20025;-77
2021/05/10 11:57:08;;;;;;;2.50;0.40;;;17.50;99.90;;;;;;20839564;28;20113;-77
2021/05/10 12:07:09;;;;;;;;;;;17.40;99.90;;;;;;20836933;28;20040;-76
2021/05/10 12:17:16;;;;;;;2.25;0.20;;;17.10;99.90;;;;;;20847806;28;19913;-78
2021/05/10 12:27:17;;;;;;;0.55;0.20;;;17.30;99.90;;;;;;20864008;28;20042;-78
2021/05/10 12:37:18;;;;;;;0.10;0.10;;;17.50;99.90;;;;;;20848146;28;20032;-77
2021/05/10 12:47:37;;;;;;;1.10;0.30;;;17.40;99.90;;;;;;20848221;28;20029;-77
2021/05/10 12:57:40;;;;;;;2.60;0.30;;;17.40;99.90;;;;;;20837507;28;20044;-77
2021/05/10 13:07:47;;;;;;;0.73;0.30;;;16.80;99.90;;;;;;20838969;28;20029;-76
2021/05/10 13:18:29;;;;;;;2.08;0.50;;;16.50;99.90;;;;;;20833636;28;20037;-77
2021/05/10 13:38:50;;;;;;;3.13;0.30;;;16.30;99.90;;;;;;20860052;28;20447;-77
2021/05/10 13:48:51;;;;;;;1.00;0.40;;;16.20;99.90;;;;;;20857122;28;20103;-76
2021/05/10 13:58:52;;;;;;;1.63;0.43;;;15.90;99.90;;;;;;20841329;28;20044;-76
2021/05/10 14:08:53;;;;;;;0.52;0.40;;;15.80;99.90;;;;;;20834648;28;20410;-77
2021/05/10 14:28:57;;;;;;;0.30;0.20;;;15.70;99.90;;;;;;20844183;28;20882;-76
2021/05/10 14:38:58;;;;;;;0.40;0.40;;;15.60;99.90;;;;;;20838622;28;20037;-78
2021/05/10 14:48:59;;;;;;;9.33;0.23;;;15.60;99.90;;;;;;20838590;28;20104;-77
2021/05/10 14:59:02;;;;;;;1.63;0.60;;;15.50;99.90;;;;;;20835736;28;20056;-77
2021/05/10 15:09:03;;;;;;;2.15;0.20;;;15.30;99.90;;;;;;20836782;28;20169;-78
2021/05/10 15:19:04;;;;;;;7.10;0.80;;;15.20;99.90;;;;;;20840513;28;20034;-77
2021/05/10 15:29:05;;;;;;;3.53;0.43;;;15.30;99.90;;;;;;20803948;28;20094;-77
2021/05/10 15:39:06;;;;;;;3.30;0.30;;;15.00;99.90;;;;;;20807308;28;20026;-78
2021/05/10 15:49:09;;;;;;;1.13;0.40;;;15.00;99.90;;;;;;20805527;28;20037;-78
2021/05/10 15:59:10;;;;;;;1.30;0.20;;;15.10;99.90;;;;;;20805072;28;20037;-78
2021/05/10 16:09:11;;;;;;;0.57;0.30;;;14.90;99.90;;;;;;20804688;28;20037;-78
2021/05/10 16:19:12;;;;;;;0.17;0.17;;;14.80;99.90;;;;;;20806741;28;20497;-77
2021/05/10 16:29:13;;;;;;;0.63;0.40;;;14.90;99.90;;;;;;20805207;28;20128;-78
2021/05/10 16:39:14;;;;;;;0.70;0.40;;;14.90;99.90;;;;;;20789764;28;20037;-79
2021/05/10 16:49:15;;;;;;;3.27;0.40;;;14.70;99.90;;;;;;20721341;28;20515;-79
2021/05/10 16:59:15;;;;;;;3.13;1.65;;;14.50;99.90;;;;;;20721263;28;20026;-78
2021/05/10 17:09:16;;;;;;;1.87;0.77;;;14.40;99.90;;;;;;20736230;28;20030;-78
2021/05/10 17:19:17;;;;;;;1.77;1.38;;;14.20;99.90;;;;;;20790339;28;20073;-78
2021/05/10 17:29:18;;;;;;;3.45;2.33;;;14.10;99.90;;;;;;20820944;28;20215;-78
2021/05/10 17:39:19;;;;;;;3.60;1.50;;;13.80;99.90;;;;;;20820357;28;20036;-77
2021/05/10 17:49:20;;;;;;;3.77;2.90;;;13.80;99.90;;;;;;20815364;28;20034;-78
2021/05/10 17:59:20;;;;;;;3.53;1.10;;;13.60;99.90;;;;;;20813251;28;20087;-78
2021/05/10 18:09:23;;;;;;;5.10;2.43;;;13.50;99.90;;;;;;20813485;28;20056;-77
2021/05/10 18:19:25;;;;;;;5.20;2.03;;;13.30;99.90;;;;;;20811055;28;20033;-77
2021/05/10 18:29:26;;;;;;;6.57;3.70;;;13.20;99.90;;;;;;20813140;28;20029;-78
2021/05/10 18:39:28;;;;;;;6.97;4.27;;;13.20;99.90;;;;;;20812544;28;20025;-77
2021/05/10 18:49:49;;;;;;;7.30;5.15;;;13.10;99.90;;;;;;20810147;28;20037;-77
2021/05/10 18:59:50;;;;;;;2.28;1.38;;;13.00;99.90;;;;;;20811066;28;20412;-78
2021/05/10 19:09:51;;;;;;;2.30;1.53;;;13.00;99.90;;;;;;20809975;28;20095;-79
2021/05/10 19:19:51;;;;;;;2.60;1.40;;;13.00;99.90;;;;;;20846545;28;20072;-79
2021/05/10 19:29:55;;;;;;;1.77;1.33;;;12.90;99.90;;;;;;20808846;28;20033;-78
2021/05/10 19:39:57;;;;;;;3.85;2.03;;;12.80;99.90;;;;;;20806214;28;20038;-78
2021/05/10 20:00:12;;;;;;;6.40;2.70;;;12.70;99.90;;;;;;20806587;28;20150;-79
2021/05/10 20:10:13;;;;;;;7.15;3.28;;;12.70;99.90;;;;;;20808371;28;20025;-78
2021/05/10 20:20:14;;;;;;;6.53;3.40;;;12.70;99.90;;;;;;20793837;28;20040;-78
2021/05/10 20:30:16;;;;;;;2.83;2.20;;;12.70;99.90;;;;;;20806736;28;20052;-78
2021/05/10 20:40:16;;;;;;;;;;;12.60;99.90;;;;;;20813393;28;20029;-78
2021/05/10 20:50:18;;;;;;;8.90;4.80;;;12.50;99.90;;;;;;20821647;28;19913;-79
2021/05/10 21:00:19;;;;;;;7.77;5.53;;;12.50;99.90;;;;;;20786199;28;20060;-78
2021/05/10 21:10:20;;;;;;;;;;;12.60;99.90;;;;;;20770536;28;20480;-78
2021/05/10 21:20:23;;;;;;;13.40;7.22;;;12.60;99.90;;;;;;20771227;28;20007;-79
2021/05/10 21:30:24;;;;;;;15.50;8.85;;;12.50;99.90;;;;;;20920547;22;20060;-76
2021/05/10 21:40:26;;;;;;;16.03;9.73;;;12.40;99.90;;;;;;20918958;28;20029;-76
2021/05/10 21:50:27;;;;;;;13.25;8.80;;;12.40;99.90;;;;;;20917891;28;20032;-76
2021/05/10 22:00:37;;;;;;;11.33;7.10;;;12.50;99.90;;;;;;20917146;28;20037;-76
2021/05/10 22:10:38;;;;;;;10.68;7.25;;;12.40;99.90;;;;;;20916365;28;20119;-76
2021/05/10 22:20:46;;;;;;;12.90;7.40;;;12.40;99.90;;;;;;20926317;28;20021;-76
2021/05/10 22:30:49;;;;;;;11.88;7.22;;;12.20;99.90;;;;;;20914324;28;20103;-76
2021/05/10 22:41:03;;;;;;;12.23;8.45;;;12.20;99.90;;;;;;20914383;28;20029;-76
2021/05/10 23:22:06;;;;;;;16.70;9.80;;;12.00;99.90;;;;;;20909921;28;20552;-76
2021/05/10 23:32:07;;;;;;;16.63;9.70;;;11.90;99.90;;;;;;20910584;28;20028;-76
2021/05/10 23:42:08;;;;;;;19.17;11.73;;;11.80;99.90;;;;;;20909685;28;20061;-76
2021/05/10 23:52:09;;;;;;;22.00;13.07;;;11.70;99.90;;;;;;20908651;28;20028;-76
